Time;durP1;ratioP1;P1;durP2;ratioP2;P2;SDS_P1;SDS_P2;PMS_P1;PMS_P2;Temp;Humidity;BMP_temperature;BMP_pressure;BME280_temperature;BME280_humidity;BME280_pressure;Samples;Min_cycle;Max_cycle;Signal;HPM_P1;HPM_P2
2022/07/23 00:01:20;;;;;;;7.95;4.70;;;25.50;89.10;;;;;;6206708;28;20092;-81
2022/07/23 00:04:21;;;;;;;9.60;4.68;;;25.40;89.30;;;;;;6206492;28;20054;-79
2022/07/23 00:07:23;;;;;;;7.22;4.60;;;25.40;89.00;;;;;;6204842;28;20054;-80
2022/07/23 00:10:25;;;;;;;5.95;4.63;;;25.40;88.30;;;;;;6207214;28;20073;-81
2022/07/23 00:13:26;;;;;;;7.55;5.10;;;25.40;87.60;;;;;;6208074;28;20046;-80
2022/07/23 00:16:30;;;;;;;8.07;4.28;;;25.40;87.30;;;;;;6205313;28;20049;-81
2022/07/23 00:19:31;;;;;;;7.82;4.47;;;25.30;86.40;;;;;;6204864;28;20050;-81
2022/07/23 00:22:33;;;;;;;6.80;4.35;;;25.30;85.60;;;;;;6207407;28;20054;-81
2022/07/23 00:25:35;;;;;;;7.63;4.43;;;25.30;85.10;;;;;;6207261;28;20064;-81
2022/07/23 00:28:36;;;;;;;7.72;3.92;;;25.30;84.70;;;;;;6205166;28;20054;-80
2022/07/23 00:31:40;;;;;;;5.32;3.42;;;25.20;84.50;;;;;;6204801;28;20050;-81
2022/07/23 00:34:42;;;;;;;7.05;4.45;;;25.20;84.10;;;;;;6205968;28;20691;-81
2022/07/23 00:37:44;;;;;;;7.75;4.78;;;25.20;83.90;;;;;;6204479;28;20053;-80
2022/07/23 00:40:46;;;;;;;4.32;3.20;;;25.20;83.70;;;;;;6195229;28;20047;-80
2022/07/23 00:43:47;;;;;;;10.95;4.60;;;25.20;83.40;;;;;;6183360;28;20061;-80
2022/07/23 00:46:53;;;;;;;8.50;3.88;;;25.20;82.80;;;;;;6183309;28;20046;-79
2022/07/23 00:49:55;;;;;;;4.15;3.75;;;25.20;82.50;;;;;;6183273;28;20053;-81
2022/07/23 00:52:57;;;;;;;5.68;3.22;;;25.20;81.90;;;;;;6183249;28;20535;-80
2022/07/23 00:55:59;;;;;;;7.35;4.47;;;25.20;81.60;;;;;;6184029;28;20047;-80
2022/07/23 00:59:01;;;;;;;5.53;3.95;;;25.20;81.30;;;;;;6207970;28;20488;-81
2022/07/23 01:02:04;;;;;;;6.93;4.13;;;25.20;81.40;;;;;;6207150;28;20415;-81
2022/07/23 01:05:07;;;;;;;8.43;3.78;;;25.10;81.70;;;;;;6205630;28;20046;-78
2022/07/23 01:08:08;;;;;;;4.20;3.40;;;25.10;81.30;;;;;;6206414;28;20057;-81
2022/07/23 01:11:11;;;;;;;6.00;3.90;;;25.00;81.10;;;;;;6206238;28;20060;-79
2022/07/23 01:14:15;;;;;;;5.28;3.70;;;25.00;81.10;;;;;;6202949;28;20042;-81
2022/07/23 01:17:18;;;;;;;4.20;3.13;;;25.00;81.30;;;;;;6202491;28;20046;-81
2022/07/23 01:20:21;;;;;;;5.82;3.25;;;24.90;82.00;;;;;;6203623;28;20046;-81
2022/07/23 01:23:24;;;;;;;5.03;3.25;;;24.80;81.70;;;;;;6202809;28;20050;-79
2022/07/23 01:26:26;;;;;;;5.30;3.50;;;24.80;81.40;;;;;;6202216;28;20051;-82
2022/07/23 01:29:27;;;;;;;7.90;3.75;;;24.60;81.20;;;;;;6207179;28;20046;-81
2022/07/23 01:32:29;;;;;;;8.40;3.33;;;24.60;81.50;;;;;;6209305;28;20055;-80
2022/07/23 01:35:31;;;;;;;5.68;3.28;;;24.60;81.10;;;;;;6210682;28;20050;-80
2022/07/23 01:38:34;;;;;;;3.13;2.67;;;24.50;81.20;;;;;;6209198;28;20045;-80
2022/07/23 01:41:36;;;;;;;5.07;3.28;;;24.50;80.70;;;;;;6208150;28;20042;-81
2022/07/23 01:44:37;;;;;;;6.13;3.17;;;24.50;80.70;;;;;;6207525;28;20053;-80
2022/07/23 01:47:39;;;;;;;5.63;3.38;;;24.30;80.70;;;;;;6206942;28;20046;-80
2022/07/23 01:50:41;;;;;;;7.80;3.50;;;24.30;81.20;;;;;;6207118;28;20472;-81
2022/07/23 01:53:44;;;;;;;4.78;3.15;;;24.30;80.80;;;;;;6207400;28;20052;-81
2022/07/23 01:56:46;;;;;;;3.88;3.38;;;24.20;81.40;;;;;;6209642;28;20046;-80
2022/07/23 01:59:48;;;;;;;4.93;3.30;;;24.10;83.20;;;;;;6209101;28;20054;-81
2022/07/23 02:02:50;;;;;;;6.85;3.40;;;24.00;83.90;;;;;;6209288;28;20060;-80
2022/07/23 02:05:52;;;;;;;4.45;2.97;;;23.80;84.20;;;;;;6208820;28;20046;-81
2022/07/23 02:08:55;;;;;;;8.57;3.70;;;23.70;84.90;;;;;;6208584;28;20046;-81
2022/07/23 02:11:57;;;;;;;3.75;3.05;;;23.50;85.50;;;;;;6206371;28;20054;-80
2022/07/23 02:14:59;;;;;;;4.50;3.38;;;23.20;85.70;;;;;;6206959;28;20062;-81
2022/07/23 02:18:01;;;;;;;7.00;3.55;;;23.10;86.60;;;;;;6214785;28;20146;-79
2022/07/23 02:21:02;;;;;;;4.30;3.67;;;23.00;87.30;;;;;;6213434;28;20419;-80
2022/07/23 02:24:06;;;;;;;5.72;3.10;;;22.90;87.10;;;;;;6210479;28;20042;-81
2022/07/23 02:27:08;;;;;;;5.70;3.60;;;23.00;86.90;;;;;;6209136;28;20445;-81
2022/07/23 02:30:11;;;;;;;10.52;5.97;;;23.00;86.70;;;;;;6209157;28;20057;-80
2022/07/23 02:33:12;;;;;;;4.40;3.35;;;23.00;86.80;;;;;;6208833;28;20046;-81
2022/07/23 02:36:14;;;;;;;4.97;2.72;;;23.00;87.30;;;;;;6207943;28;20050;-82
2022/07/23 02:39:17;;;;;;;3.47;3.03;;;22.90;87.70;;;;;;6212552;28;20064;-80
2022/07/23 02:42:19;;;;;;;5.25;3.30;;;22.80;88.30;;;;;;6214673;28;20046;-81
2022/07/23 02:45:20;;;;;;;4.10;3.40;;;22.70;88.70;;;;;;6208433;28;20053;-81
2022/07/23 02:48:22;;;;;;;5.00;3.60;;;22.60;89.00;;;;;;6206959;28;20046;-81
2022/07/23 02:51:24;;;;;;;5.55;4.22;;;22.50;88.90;;;;;;6207840;28;20054;-80
2022/07/23 02:54:27;;;;;;;4.80;3.50;;;22.50;89.20;;;;;;6206829;28;20069;-81
2022/07/23 02:57:29;;;;;;;5.45;3.40;;;22.50;89.40;;;;;;6206164;28;20519;-81
2022/07/23 03:00:30;;;;;;;7.28;3.38;;;22.60;88.10;;;;;;6206799;28;20050;-80
2022/07/23 03:03:32;;;;;;;6.47;3.70;;;22.70;87.20;;;;;;6207333;28;20050;-81
2022/07/23 03:06:34;;;;;;;6.53;3.13;;;22.80;85.90;;;;;;6206093;28;20058;-80
2022/07/23 03:09:37;;;;;;;5.38;3.08;;;22.90;85.60;;;;;;6205867;28;20057;-82
2022/07/23 03:12:39;;;;;;;4.30;3.17;;;22.90;84.50;;;;;;6206167;28;20053;-79
2022/07/23 03:15:40;;;;;;;4.53;2.47;;;23.10;84.10;;;;;;6206336;28;20467;-81
2022/07/23 03:18:42;;;;;;;5.35;2.55;;;23.10;83.30;;;;;;6207520;28;20411;-81
2022/07/23 03:21:44;;;;;;;4.15;2.60;;;23.20;83.40;;;;;;6207412;28;20472;-81
2022/07/23 03:24:56;;;;;;;8.35;2.80;;;23.20;82.70;;;;;;6207488;28;20053;-80
2022/07/23 03:27:58;;;;;;;4.03;2.70;;;23.30;82.60;;;;;;6205667;28;20376;-78
2022/07/23 03:30:59;;;;;;;5.03;2.58;;;23.30;82.30;;;;;;6208504;28;20449;-81
2022/07/23 03:34:01;;;;;;;5.93;2.55;;;23.30;82.00;;;;;;6211880;28;20050;-81
2022/07/23 03:37:03;;;;;;;3.53;2.70;;;23.30;82.00;;;;;;6210590;28;20042;-80
2022/07/23 03:40:08;;;;;;;4.07;2.40;;;23.20;82.30;;;;;;6210199;28;20038;-80
2022/07/23 03:43:09;;;;;;;3.47;2.95;;;23.30;82.10;;;;;;6210590;28;20137;-81
2022/07/23 03:46:11;;;;;;;4.22;2.78;;;23.20;81.80;;;;;;6211135;28;20049;-80
2022/07/23 03:49:13;;;;;;;4.13;2.47;;;23.40;81.60;;;;;;6210272;28;20054;-79
2022/07/23 03:52:14;;;;;;;2.97;2.35;;;23.50;81.40;;;;;;6209035;28;20060;-79
2022/07/23 03:55:17;;;;;;;3.58;2.72;;;23.50;81.40;;;;;;6210353;28;20084;-81
2022/07/23 03:58:19;;;;;;;5.88;2.72;;;23.40;81.10;;;;;;6208334;28;20542;-79
2022/07/23 04:01:21;;;;;;;3.70;2.83;;;23.30;81.20;;;;;;6208071;28;20054;-79
2022/07/23 04:04:22;;;;;;;5.82;2.92;;;23.30;81.90;;;;;;6208171;28;20053;-80
2022/07/23 04:07:24;;;;;;;3.17;2.38;;;23.30;82.00;;;;;;6208956;28;20052;-80
2022/07/23 04:10:27;;;;;;;6.45;2.50;;;23.30;82.00;;;;;;6209534;28;20050;-79
2022/07/23 04:13:29;;;;;;;6.35;2.70;;;23.40;81.90;;;;;;6208888;28;20049;-80
2022/07/23 04:16:31;;;;;;;3.78;2.65;;;23.40;82.10;;;;;;6208070;28;20155;-80
2022/07/23 04:19:33;;;;;;;8.82;3.20;;;23.40;82.10;;;;;;6210176;28;20075;-80
2022/07/23 04:22:35;;;;;;;5.28;2.78;;;23.50;82.00;;;;;;6209005;28;20042;-80
2022/07/23 04:25:38;;;;;;;4.47;2.55;;;23.50;81.80;;;;;;6208559;28;20061;-78
2022/07/23 04:28:39;;;;;;;3.30;2.58;;;23.60;81.40;;;;;;6209303;28;20503;-78
2022/07/23 04:31:41;;;;;;;9.10;2.88;;;23.60;81.10;;;;;;6208390;28;20069;-79
2022/07/23 04:34:43;;;;;;;4.68;2.90;;;23.70;80.90;;;;;;6209165;28;20515;-79
2022/07/23 04:37:44;;;;;;;4.85;2.80;;;23.70;80.70;;;;;;6208377;28;20049;-78
2022/07/23 04:40:47;;;;;;;3.83;2.22;;;23.80;80.50;;;;;;6207490;28;20382;-80
2022/07/23 04:43:49;;;;;;;6.63;2.90;;;23.80;80.30;;;;;;6209455;28;20061;-79
2022/07/23 04:46:51;;;;;;;3.38;2.60;;;23.80;80.40;;;;;;6207531;28;20061;-78
2022/07/23 04:49:53;;;;;;;5.72;2.72;;;23.90;80.50;;;;;;6207321;28;20050;-79
2022/07/23 04:52:54;;;;;;;5.32;2.25;;;24.00;80.10;;;;;;6207559;28;20057;-80
2022/07/23 04:55:57;;;;;;;4.32;2.78;;;24.10;79.80;;;;;;6208240;28;20455;-80
2022/07/23 04:58:59;;;;;;;5.70;3.33;;;24.10;79.30;;;;;;6209250;28;20066;-78
2022/07/23 05:02:01;;;;;;;8.68;3.03;;;24.10;79.30;;;;;;6207479;28;20051;-80
2022/07/23 05:05:02;;;;;;;3.45;2.53;;;24.10;79.60;;;;;;6207677;28;20046;-80
2022/07/23 05:08:05;;;;;;;5.22;2.83;;;24.10;79.60;;;;;;6207653;28;20078;-79
2022/07/23 05:11:08;;;;;;;5.55;2.50;;;24.20;79.60;;;;;;6209175;28;20058;-80
2022/07/23 05:14:12;;;;;;;5.85;2.67;;;24.20;79.60;;;;;;6207287;28;20047;-79
2022/07/23 05:17:13;;;;;;;4.15;2.22;;;24.40;79.30;;;;;;6207478;28;20054;-80
2022/07/23 05:20:15;;;;;;;3.88;2.60;;;24.60;78.70;;;;;;6207783;28;20066;-81
2022/07/23 05:23:17;;;;;;;6.55;2.65;;;24.80;78.30;;;;;;6209110;28;20058;-81
2022/07/23 05:26:20;;;;;;;5.68;2.55;;;24.90;78.10;;;;;;6207563;28;20050;-79
2022/07/23 05:29:22;;;;;;;7.63;2.60;;;25.00;78.00;;;;;;6207298;28;20109;-79
2022/07/23 05:32:24;;;;;;;4.10;2.13;;;25.70;76.30;;;;;;6207328;28;20050;-79
2022/07/23 05:35:27;;;;;;;3.88;2.83;;;26.00;74.70;;;;;;6208260;28;20424;-80
2022/07/23 05:38:29;;;;;;;3.72;3.00;;;26.00;74.00;;;;;;6207192;28;20070;-79
2022/07/23 05:41:32;;;;;;;4.35;2.97;;;27.00;72.90;;;;;;6207172;28;20133;-80
2022/07/23 05:44:34;;;;;;;6.13;2.75;;;27.30;68.80;;;;;;6207777;28;20042;-80
2022/07/23 05:47:44;;;;;;;4.43;2.83;;;27.00;69.30;;;;;;6208871;28;20058;-78
2022/07/23 05:50:46;;;;;;;6.65;2.85;;;26.70;70.50;;;;;;6209251;28;20476;-78
2022/07/23 05:53:48;;;;;;;4.47;3.13;;;26.40;71.40;;;;;;6208546;28;20050;-78
2022/07/23 05:56:52;;;;;;;20.77;5.25;;;26.10;73.10;;;;;;6209755;28;20053;-79
2022/07/23 05:59:54;;;;;;;8.70;4.30;;;25.70;82.30;;;;;;6207315;28;20053;-78
2022/07/23 06:02:56;;;;;;;6.35;4.05;;;25.00;87.40;;;;;;6208260;28;20082;-78
2022/07/23 06:05:57;;;;;;;7.65;4.80;;;24.30;91.00;;;;;;6207754;28;20144;-79
2022/07/23 06:08:59;;;;;;;8.07;4.25;;;23.90;92.70;;;;;;6207482;28;20050;-78
2022/07/23 06:12:02;;;;;;;8.88;4.90;;;23.70;93.80;;;;;;6207464;28;20069;-80
2022/07/23 06:15:05;;;;;;;9.30;4.55;;;23.50;94.90;;;;;;6211866;28;20128;-79
2022/07/23 06:18:07;;;;;;;5.72;4.15;;;23.20;95.10;;;;;;6213662;28;20078;-80
2022/07/23 06:21:09;;;;;;;8.88;4.07;;;23.10;95.70;;;;;;6214272;28;20066;-79
2022/07/23 06:24:11;;;;;;;6.88;3.92;;;22.80;95.90;;;;;;6214374;28;20118;-78
2022/07/23 06:27:14;;;;;;;9.77;4.82;;;22.70;96.60;;;;;;6214193;28;20070;-80
2022/07/23 06:30:17;;;;;;;6.05;4.22;;;22.80;96.90;;;;;;6213761;28;20056;-81
2022/07/23 06:33:18;;;;;;;6.45;4.60;;;22.80;96.80;;;;;;6213456;28;20058;-80
2022/07/23 06:36:20;;;;;;;7.82;4.88;;;23.00;97.10;;;;;;6212811;28;20047;-80
2022/07/23 06:39:22;;;;;;;7.53;4.50;;;23.10;96.90;;;;;;6213388;28;20070;-80
2022/07/23 06:42:25;;;;;;;7.10;4.75;;;23.10;96.90;;;;;;6212063;28;20056;-78
2022/07/23 06:45:27;;;;;;;8.07;4.13;;;23.20;97.20;;;;;;6211585;28;20051;-80
2022/07/23 06:48:29;;;;;;;7.22;4.53;;;23.30;97.20;;;;;;6211263;28;20057;-80
2022/07/23 06:51:30;;;;;;;6.15;4.15;;;23.60;97.30;;;;;;6212740;28;20045;-78
2022/07/23 06:54:32;;;;;;;6.50;4.43;;;23.90;97.00;;;;;;6210179;28;20494;-79
2022/07/23 06:57:35;;;;;;;9.75;4.88;;;24.20;96.30;;;;;;6210175;28;20046;-78
2022/07/23 07:00:37;;;;;;;7.72;5.00;;;24.40;95.90;;;;;;6207784;28;20049;-78
2022/07/23 07:03:39;;;;;;;7.97;4.50;;;24.50;95.90;;;;;;6209814;28;20072;-78
2022/07/23 07:06:40;;;;;;;6.22;4.00;;;24.40;95.80;;;;;;6209305;28;20140;-79
2022/07/23 07:09:42;;;;;;;18.85;6.20;;;24.20;95.90;;;;;;6208916;28;20066;-78
2022/07/23 07:12:45;;;;;;;7.00;4.47;;;23.90;96.20;;;;;;6210221;28;20061;-80
2022/07/23 07:15:47;;;;;;;6.10;4.22;;;23.70;96.80;;;;;;6209558;28;20553;-78
2022/07/23 07:18:49;;;;;;;5.97;4.20;;;23.70;97.00;;;;;;6209010;28;20046;-78
2022/07/23 07:21:50;;;;;;;5.38;3.53;;;23.70;96.80;;;;;;6210179;28;20048;-79
2022/07/23 07:24:52;;;;;;;6.07;4.88;;;24.00;96.60;;;;;;6207965;28;20069;-79
2022/07/23 07:27:55;;;;;;;5.40;4.20;;;24.70;96.10;;;;;;6208293;28;20050;-79
2022/07/23 07:31:05;;;;;;;6.95;4.63;;;26.60;94.20;;;;;;6207737;28;20046;-81
2022/07/23 07:34:06;;;;;;;8.45;4.70;;;28.70;90.10;;;;;;6169572;28;20050;-76
2022/07/23 07:37:08;;;;;;;7.68;4.32;;;28.80;86.70;;;;;;6201566;28;20042;-77
2022/07/23 07:40:10;;;;;;;7.55;3.65;;;28.50;87.00;;;;;;6201265;28;20420;-77
2022/07/23 07:43:13;;;;;;;7.07;4.10;;;28.10;85.60;;;;;;6199537;28;20061;-80
2022/07/23 07:46:15;;;;;;;8.73;4.20;;;27.80;86.80;;;;;;6198771;28;20046;-76
2022/07/23 07:49:19;;;;;;;6.43;3.97;;;27.70;88.00;;;;;;6198562;28;20515;-76
2022/07/23 07:52:20;;;;;;;5.38;3.42;;;27.80;88.60;;;;;;6199447;28;20129;-76
2022/07/23 07:55:22;;;;;;;7.45;3.60;;;28.00;86.10;;;;;;6199616;28;20061;-77
2022/07/23 07:58:25;;;;;;;4.72;3.08;;;28.30;84.10;;;;;;6198752;28;20050;-77
2022/07/23 08:01:27;;;;;;;4.97;3.25;;;28.20;81.30;;;;;;6198976;28;20057;-79
2022/07/23 08:04:29;;;;;;;6.05;3.33;;;27.90;82.80;;;;;;6198954;28;20038;-77
2022/07/23 08:07:30;;;;;;;6.28;3.67;;;27.70;82.60;;;;;;6198420;28;20053;-76
2022/07/23 08:10:32;;;;;;;6.45;4.80;;;27.60;82.40;;;;;;6197911;28;20412;-80
2022/07/23 08:13:35;;;;;;;7.82;3.30;;;27.60;82.40;;;;;;6198206;28;20401;-80
2022/07/23 08:16:37;;;;;;;8.48;4.15;;;27.60;83.50;;;;;;6197862;28;20579;-77
2022/07/23 08:19:39;;;;;;;5.38;3.42;;;27.70;82.70;;;;;;6198023;28;20362;-79
2022/07/23 08:22:45;;;;;;;5.32;3.78;;;27.90;83.00;;;;;;6198662;28;20496;-79
2022/07/23 08:25:47;;;;;;;5.03;3.22;;;28.00;84.10;;;;;;6198307;28;20069;-80
2022/07/23 08:28:50;;;;;;;5.65;3.38;;;28.20;82.90;;;;;;6198574;28;20407;-80
2022/07/23 08:31:51;;;;;;;8.50;3.53;;;28.30;80.20;;;;;;6199191;28;20419;-78
2022/07/23 08:34:53;;;;;;;8.63;3.50;;;28.40;76.40;;;;;;6199810;28;20054;-79
2022/07/23 08:37:55;;;;;;;3.53;2.78;;;28.30;75.30;;;;;;6198046;28;20468;-78
2022/07/23 08:40:58;;;;;;;4.05;3.13;;;28.60;74.80;;;;;;6198622;28;20420;-77
2022/07/23 08:44:01;;;;;;;6.32;4.32;;;29.00;73.90;;;;;;6198088;28;20601;-79
2022/07/23 08:47:03;;;;;;;5.88;4.07;;;29.10;72.70;;;;;;6200581;28;20177;-78
2022/07/23 08:50:07;;;;;;;5.13;3.60;;;29.20;73.00;;;;;;6201039;28;20050;-78
2022/07/23 08:53:10;;;;;;;4.30;2.92;;;29.20;70.20;;;;;;6200257;28;20061;-78
2022/07/23 08:56:11;;;;;;;4.97;3.35;;;29.20;71.30;;;;;;6201463;28;20046;-79
2022/07/23 08:59:15;;;;;;;4.53;2.83;;;29.40;71.60;;;;;;6201163;28;20046;-78
2022/07/23 09:02:17;;;;;;;5.20;3.55;;;29.60;69.90;;;;;;6202134;28;20150;-78
2022/07/23 09:05:20;;;;;;;4.63;3.03;;;29.90;69.60;;;;;;6201045;28;20522;-78
2022/07/23 09:08:23;;;;;;;5.45;3.30;;;30.20;68.50;;;;;;6200780;28;20042;-79
2022/07/23 09:11:25;;;;;;;8.63;3.38;;;30.20;68.00;;;;;;6201379;28;20062;-78
2022/07/23 09:14:39;;;;;;;5.18;3.20;;;30.50;67.20;;;;;;6201018;28;20053;-80
2022/07/23 09:17:43;;;;;;;4.43;3.40;;;30.30;67.40;;;;;;6200591;28;20047;-78
2022/07/23 09:20:44;;;;;;;5.13;3.17;;;30.30;67.90;;;;;;6199362;28;20057;-78
2022/07/23 09:23:48;;;;;;;5.10;3.38;;;30.60;66.50;;;;;;6200208;28;20146;-78
2022/07/23 09:26:50;;;;;;;6.00;3.40;;;30.90;65.70;;;;;;6200711;28;20393;-78
2022/07/23 09:29:58;;;;;;;6.25;3.17;;;31.30;64.10;;;;;;6196809;28;20035;-79
2022/07/23 09:33:10;;;;;;;5.78;2.90;;;31.60;61.60;;;;;;6192419;28;20046;-79
2022/07/23 09:36:13;;;;;;;8.00;3.83;;;32.10;60.20;;;;;;6201085;28;20051;-78
2022/07/23 09:39:17;;;;;;;5.55;3.05;;;32.40;58.50;;;;;;6199823;28;20043;-77
2022/07/23 09:42:21;;;;;;;3.58;2.72;;;32.60;57.10;;;;;;6198035;28;20527;-78
2022/07/23 09:45:24;;;;;;;5.80;3.30;;;32.70;56.90;;;;;;6198180;28;20516;-78
2022/07/23 09:48:26;;;;;;;5.85;3.13;;;33.10;56.20;;;;;;6200461;28;20061;-78
2022/07/23 09:51:32;;;;;;;3.33;2.78;;;33.30;55.40;;;;;;6205689;28;20069;-78
2022/07/23 09:54:36;;;;;;;4.18;3.65;;;33.40;53.80;;;;;;6216929;28;20053;-79
2022/07/23 09:57:39;;;;;;;8.00;4.57;;;33.40;53.30;;;;;;6214300;28;20520;-79
2022/07/23 10:00:44;;;;;;;26.75;11.80;;;33.30;53.50;;;;;;6206258;28;20069;-80
2022/07/23 10:03:46;;;;;;;6.40;3.00;;;33.50;54.00;;;;;;6204679;28;20066;-79
2022/07/23 10:06:50;;;;;;;4.85;2.53;;;33.70;53.10;;;;;;6206581;28;20054;-79
2022/07/23 10:09:53;;;;;;;13.50;6.13;;;33.90;51.20;;;;;;6207629;28;20046;-81
2022/07/23 10:16:16;;;;;;;7.03;4.40;;;35.10;49.20;;;;;;6209801;28;20050;-78
2022/07/23 10:19:19;;;;;;;5.75;2.60;;;35.30;48.10;;;;;;6209633;28;20057;-80
2022/07/23 10:22:24;;;;;;;7.03;2.80;;;35.10;47.20;;;;;;6207945;28;20050;-80
2022/07/23 10:25:33;;;;;;;3.78;2.72;;;34.80;47.10;;;;;;6208282;28;20057;-80
2022/07/23 10:28:58;;;;;;;4.40;2.25;;;34.60;48.00;;;;;;6206486;28;20046;-80
2022/07/23 10:32:09;;;;;;;2.97;2.63;;;34.60;47.60;;;;;;6207944;28;20089;-78
2022/07/23 10:35:19;;;;;;;4.57;2.63;;;34.60;48.00;;;;;;6210813;28;20117;-78
2022/07/23 10:38:26;;;;;;;5.10;2.40;;;34.70;47.70;;;;;;6208481;28;20046;-78
2022/07/23 10:41:35;;;;;;;6.03;2.65;;;34.80;47.50;;;;;;6208291;28;20050;-79
2022/07/23 10:44:40;;;;;;;6.65;2.60;;;34.90;47.40;;;;;;6208833;28;20046;-78
2022/07/23 10:47:43;;;;;;;4.15;2.63;;;34.90;47.30;;;;;;6208072;28;20050;-79
2022/07/23 10:51:01;;;;;;;3.80;2.55;;;35.10;46.70;;;;;;6208569;28;20051;-79
2022/07/23 10:54:03;;;;;;;3.58;2.45;;;35.10;46.20;;;;;;6207902;28;20519;-79
2022/07/23 10:57:09;;;;;;;4.82;2.65;;;35.20;46.60;;;;;;6209206;28;20042;-79
2022/07/23 11:00:17;;;;;;;3.47;2.33;;;35.30;45.40;;;;;;6208975;28;20750;-78
2022/07/23 11:03:33;;;;;;;5.05;2.47;;;35.20;44.70;;;;;;6212108;28;20202;-78
2022/07/23 11:07:11;;;;;;;3.55;2.50;;;35.10;45.20;;;;;;6211558;28;20050;-79
2022/07/23 11:10:33;;;;;;;3.13;2.35;;;35.00;45.40;;;;;;6211357;28;20046;-78
2022/07/23 11:13:49;;;;;;;6.13;2.35;;;35.30;45.20;;;;;;6211324;28;20046;-78
2022/07/23 11:16:56;;;;;;;5.90;2.38;;;35.60;44.70;;;;;;6211034;28;20057;-79
2022/07/23 11:20:24;;;;;;;4.88;2.00;;;35.80;43.80;;;;;;6211939;28;20049;-79
2022/07/23 11:24:00;;;;;;;2.97;2.03;;;35.90;43.80;;;;;;6212480;28;20046;-80
2022/07/23 11:27:03;;;;;;;3.40;2.28;;;36.10;42.90;;;;;;6211196;28;20423;-79
2022/07/23 11:30:06;;;;;;;4.22;2.25;;;36.20;43.20;;;;;;6207546;28;20043;-80
2022/07/23 11:33:20;;;;;;;5.05;1.92;;;36.30;42.90;;;;;;6204377;28;20070;-79
2022/07/23 11:36:22;;;;;;;3.92;2.72;;;36.50;42.60;;;;;;6203448;28;20132;-79
2022/07/23 11:39:27;;;;;;;2.55;1.92;;;36.70;42.10;;;;;;6182834;28;20058;-77
2022/07/23 11:42:30;;;;;;;4.90;1.98;;;36.80;42.50;;;;;;6189979;28;20058;-77
2022/07/23 11:45:34;;;;;;;3.80;2.08;;;36.50;41.50;;;;;;6202212;28;20059;-79
2022/07/23 11:48:36;;;;;;;6.40;2.40;;;36.30;42.30;;;;;;6202679;28;20050;-79
2022/07/23 11:51:37;;;;;;;5.38;2.15;;;36.50;42.20;;;;;;6199149;28;20049;-78
2022/07/23 11:54:50;;;;;;;2.60;2.15;;;36.80;41.90;;;;;;6201017;28;20050;-79
2022/07/23 11:57:52;;;;;;;5.05;2.17;;;37.30;41.70;;;;;;6199346;28;20046;-79
2022/07/23 12:00:56;;;;;;;4.10;2.38;;;37.60;41.70;;;;;;6199758;28;20054;-78
2022/07/23 12:03:57;;;;;;;3.17;2.20;;;37.70;40.80;;;;;;6198938;28;20049;-79
2022/07/23 12:06:59;;;;;;;4.72;2.58;;;37.30;40.70;;;;;;6199076;28;20471;-78
2022/07/23 12:10:06;;;;;;;5.50;2.40;;;37.30;40.60;;;;;;6199082;28;20051;-79
2022/07/23 12:13:11;;;;;;;3.00;2.00;;;37.30;40.20;;;;;;6198827;28;20054;-79
2022/07/23 12:16:13;;;;;;;5.00;2.00;;;37.30;39.80;;;;;;6199538;28;20485;-79
2022/07/23 12:19:14;;;;;;;2.25;1.90;;;37.20;40.10;;;;;;6199316;28;20056;-80
2022/07/23 12:22:17;;;;;;;2.97;2.30;;;37.40;39.80;;;;;;6199307;28;20054;-78
2022/07/23 12:25:21;;;;;;;5.55;2.47;;;37.50;39.50;;;;;;6199904;28;20042;-80
2022/07/23 12:28:29;;;;;;;5.93;2.70;;;37.60;39.00;;;;;;6199205;28;20046;-79
2022/07/23 12:31:30;;;;;;;5.78;2.50;;;37.60;39.10;;;;;;6199511;28;20058;-79
2022/07/23 12:34:32;;;;;;;4.10;2.70;;;37.80;39.20;;;;;;6197251;28;20071;-80
2022/07/23 12:37:36;;;;;;;4.63;2.40;;;38.10;39.00;;;;;;6199060;28;20046;-79
2022/07/23 12:40:44;;;;;;;5.55;1.92;;;38.30;38.70;;;;;;6199512;28;20211;-79
2022/07/23 12:43:47;;;;;;;2.90;2.05;;;38.40;38.40;;;;;;6199258;28;20497;-79
2022/07/23 12:46:50;;;;;;;4.05;1.90;;;38.30;38.50;;;;;;6200253;28;20053;-79
2022/07/23 12:49:52;;;;;;;3.08;2.35;;;38.30;38.50;;;;;;6199150;28;20050;-79
2022/07/23 12:53:03;;;;;;;3.78;2.17;;;38.00;38.80;;;;;;6199557;28;20042;-79
2022/07/23 12:56:09;;;;;;;3.92;2.45;;;37.80;39.00;;;;;;6199426;28;20048;-79
2022/07/23 12:59:15;;;;;;;4.68;2.22;;;37.50;39.40;;;;;;6198917;28;20503;-79
2022/07/23 13:02:16;;;;;;;4.15;2.70;;;37.20;39.90;;;;;;6185831;28;20056;-79
2022/07/23 13:05:18;;;;;;;3.53;2.63;;;37.20;40.30;;;;;;6198048;28;20125;-79
2022/07/23 13:08:20;;;;;;;4.10;2.25;;;37.40;39.60;;;;;;6198586;28;20046;-79
2022/07/23 13:11:24;;;;;;;5.97;2.50;;;37.40;39.50;;;;;;6198858;28;20044;-79
2022/07/23 13:14:26;;;;;;;4.07;2.72;;;37.60;39.00;;;;;;6198289;28;20050;-80
2022/07/23 13:17:28;;;;;;;6.70;2.78;;;37.80;39.00;;;;;;6197748;28;20146;-80
2022/07/23 13:20:31;;;;;;;3.00;2.50;;;38.00;38.30;;;;;;6197498;28;20117;-80
2022/07/23 13:23:32;;;;;;;4.97;2.40;;;38.10;37.60;;;;;;6202007;28;20054;-79
2022/07/23 13:26:36;;;;;;;4.93;2.40;;;38.00;37.80;;;;;;6203912;28;20046;-78
2022/07/23 13:29:38;;;;;;;5.53;2.40;;;38.20;37.80;;;;;;6203711;28;20424;-78
2022/07/23 13:32:40;;;;;;;2.90;2.15;;;38.40;37.90;;;;;;6214617;28;20050;-78
2022/07/23 13:35:41;;;;;;;5.53;2.28;;;38.50;37.10;;;;;;6218846;28;20050;-80
2022/07/23 13:38:43;;;;;;;2.35;1.77;;;38.60;37.20;;;;;;6204491;28;20050;-79
2022/07/23 13:41:46;;;;;;;3.20;2.28;;;38.60;36.90;;;;;;6203893;28;20056;-80
2022/07/23 13:44:48;;;;;;;2.75;1.73;;;38.70;37.20;;;;;;6202380;28;20420;-80
2022/07/23 13:47:49;;;;;;;4.55;2.30;;;38.60;37.00;;;;;;6203738;28;20050;-80
2022/07/23 13:50:52;;;;;;;3.72;2.60;;;38.50;36.90;;;;;;6204016;28;20056;-79
2022/07/23 13:53:54;;;;;;;2.65;2.00;;;38.50;36.60;;;;;;6204000;28;20042;-79
2022/07/23 13:56:57;;;;;;;3.50;2.45;;;38.40;36.80;;;;;;6202969;28;20054;-80
2022/07/23 13:59:59;;;;;;;3.05;2.00;;;38.40;36.90;;;;;;6202955;28;20046;-79
2022/07/23 14:03:02;;;;;;;2.33;1.83;;;38.40;36.60;;;;;;6203837;28;20054;-79
2022/07/23 14:06:05;;;;;;;4.00;1.90;;;38.40;36.70;;;;;;6202815;28;20042;-79
2022/07/23 14:09:07;;;;;;;3.33;2.30;;;38.40;36.10;;;;;;6202822;28;20080;-80
2022/07/23 14:12:10;;;;;;;4.85;2.00;;;38.40;36.50;;;;;;6203482;28;20050;-80
2022/07/23 14:15:13;;;;;;;3.28;1.90;;;38.60;36.40;;;;;;6203501;28;20073;-79
2022/07/23 14:18:15;;;;;;;3.20;1.65;;;38.70;35.90;;;;;;6203078;28;20050;-78
2022/07/23 14:21:16;;;;;;;4.90;1.80;;;38.80;35.80;;;;;;6203369;28;20065;-78
2022/07/23 14:24:18;;;;;;;4.40;2.38;;;38.90;35.50;;;;;;6202454;28;20050;-79
2022/07/23 14:27:21;;;;;;;5.15;2.33;;;39.00;35.60;;;;;;6202629;28;20049;-79
2022/07/23 14:30:23;;;;;;;5.53;2.10;;;39.10;35.50;;;;;;6202532;28;20046;-79
2022/07/23 14:33:25;;;;;;;2.92;1.80;;;39.20;35.30;;;;;;6202042;28;20069;-79
2022/07/23 14:36:27;;;;;;;3.58;2.33;;;39.30;35.30;;;;;;6197917;28;20046;-79
2022/07/23 14:39:29;;;;;;;4.80;2.20;;;39.20;35.10;;;;;;6202384;28;20050;-79
2022/07/23 14:42:32;;;;;;;3.28;1.95;;;39.10;35.30;;;;;;6201808;28;20436;-78
2022/07/23 14:45:34;;;;;;;6.38;2.20;;;39.00;35.30;;;;;;6201936;28;20077;-78
2022/07/23 14:48:37;;;;;;;5.30;2.30;;;38.80;35.60;;;;;;6201675;28;20054;-79
2022/07/23 14:51:38;;;;;;;10.00;3.08;;;38.50;36.00;;;;;;6201733;28;20048;-79
2022/07/23 14:54:40;;;;;;;4.30;2.25;;;38.20;36.10;;;;;;6202291;28;20050;-79
2022/07/23 14:57:43;;;;;;;3.20;2.38;;;37.90;36.20;;;;;;6201610;28;20050;-78
2022/07/23 15:00:45;;;;;;;3.70;2.10;;;37.50;36.40;;;;;;6201539;28;20042;-79
2022/07/23 15:03:46;;;;;;;4.63;2.50;;;37.10;37.10;;;;;;6201320;28;20420;-78
2022/07/23 15:06:48;;;;;;;3.33;2.45;;;37.00;37.40;;;;;;6200978;28;20511;-78
2022/07/23 15:09:50;;;;;;;2.95;2.30;;;36.80;37.50;;;;;;6201171;28;20060;-79
2022/07/23 15:12:53;;;;;;;13.18;3.08;;;36.80;37.80;;;;;;6201037;28;20065;-78
2022/07/23 15:15:55;;;;;;;3.15;2.55;;;36.70;38.00;;;;;;6200589;28;20056;-78
2022/07/23 15:18:56;;;;;;;6.20;2.95;;;36.60;38.20;;;;;;6200552;28;20057;-78
2022/07/23 15:21:59;;;;;;;3.30;2.38;;;36.50;38.50;;;;;;6201171;28;20054;-78
2022/07/23 15:25:01;;;;;;;4.07;2.30;;;36.60;38.60;;;;;;6200901;28;20050;-77
2022/07/23 15:28:04;;;;;;;4.57;2.28;;;36.60;38.20;;;;;;6200644;28;20073;-78
2022/07/23 15:31:06;;;;;;;4.30;2.30;;;36.70;38.20;;;;;;6201385;28;20050;-78
2022/07/23 15:34:08;;;;;;;3.70;2.90;;;36.80;37.70;;;;;;6200647;28;20054;-78
2022/07/23 15:37:10;;;;;;;3.92;2.58;;;36.80;37.80;;;;;;6193976;28;20049;-78
2022/07/23 15:40:12;;;;;;;5.30;2.75;;;36.90;38.00;;;;;;6201209;28;20048;-79
2022/07/23 15:43:15;;;;;;;5.15;2.58;;;37.00;38.80;;;;;;6200839;28;20086;-79
2022/07/23 15:46:17;;;;;;;2.63;2.03;;;37.20;38.60;;;;;;6199563;28;20504;-79
2022/07/23 15:49:19;;;;;;;5.35;2.30;;;37.20;38.40;;;;;;6200250;28;20050;-78
2022/07/23 15:52:21;;;;;;;4.13;2.70;;;37.20;38.50;;;;;;6200741;28;20057;-78
2022/07/23 15:55:23;;;;;;;4.53;2.20;;;37.10;38.20;;;;;;6202266;28;20056;-79